sensor_id;sensor_type;location;lat;lon;timestamp;P1;durP1;ratioP1;P2;durP2;ratioP2
3004;SDS011;1512;51.486;6.610;2023-07-13T00:01:39;4.37;;;2.80;;
3004;SDS011;1512;51.486;6.610;2023-07-13T00:05:56;5.30;;;2.73;;
3004;SDS011;1512;51.486;6.610;2023-07-13T00:10:00;4.10;;;3.17;;
3004;SDS011;1512;51.486;6.610;2023-07-13T00:14:09;2.60;;;2.40;;
3004;SDS011;1512;51.486;6.610;2023-07-13T00:18:19;3.40;;;2.73;;
3004;SDS011;1512;51.486;6.610;2023-07-13T00:22:28;2.83;;;2.40;;
3004;SDS011;1512;51.486;6.610;2023-07-13T00:26:36;4.37;;;2.80;;
3004;SDS011;1512;51.486;6.610;2023-07-13T00:30:45;3.73;;;2.90;;
3004;SDS011;1512;51.486;6.610;2023-07-13T00:39:22;4.03;;;2.73;;
3004;SDS011;1512;51.486;6.610;2023-07-13T00:43:31;2.63;;;2.33;;
3004;SDS011;1512;51.486;6.610;2023-07-13T00:47:40;10.10;;;3.17;;
3004;SDS011;1512;51.486;6.610;2023-07-13T00:51:55;4.83;;;3.00;;
3004;SDS011;1512;51.486;6.610;2023-07-13T00:56:05;4.67;;;2.50;;
3004;SDS011;1512;51.486;6.610;2023-07-13T01:00:14;2.80;;;2.60;;
3004;SDS011;1512;51.486;6.610;2023-07-13T01:04:25;3.33;;;2.60;;
3004;SDS011;1512;51.486;6.610;2023-07-13T01:08:34;2.60;;;2.40;;
3004;SDS011;1512;51.486;6.610;2023-07-13T01:17:11;3.60;;;2.47;;
3004;SDS011;1512;51.486;6.610;2023-07-13T01:21:19;3.90;;;2.63;;
3004;SDS011;1512;51.486;6.610;2023-07-13T01:25:28;5.80;;;3.37;;
3004;SDS011;1512;51.486;6.610;2023-07-13T01:29:37;5.07;;;2.40;;
3004;SDS011;1512;51.486;6.610;2023-07-13T01:33:52;4.43;;;2.83;;
3004;SDS011;1512;51.486;6.610;2023-07-13T01:38:04;3.10;;;2.80;;
3004;SDS011;1512;51.486;6.610;2023-07-13T01:42:15;3.10;;;2.47;;
3004;SDS011;1512;51.486;6.610;2023-07-13T01:46:24;8.50;;;2.73;;
3004;SDS011;1512;51.486;6.610;2023-07-13T01:50:33;5.40;;;3.57;;
3004;SDS011;1512;51.486;6.610;2023-07-13T01:54:42;4.10;;;2.63;;
3004;SDS011;1512;51.486;6.610;2023-07-13T01:58:51;3.27;;;2.40;;
3004;SDS011;1512;51.486;6.610;2023-07-13T02:03:00;5.27;;;2.70;;
3004;SDS011;1512;51.486;6.610;2023-07-13T02:07:09;7.20;;;2.97;;
3004;SDS011;1512;51.486;6.610;2023-07-13T02:11:18;3.13;;;2.80;;
3004;SDS011;1512;51.486;6.610;2023-07-13T02:15:26;3.07;;;2.77;;
3004;SDS011;1512;51.486;6.610;2023-07-13T02:19:35;2.60;;;2.40;;
3004;SDS011;1512;51.486;6.610;2023-07-13T02:23:44;5.23;;;3.03;;
3004;SDS011;1512;51.486;6.610;2023-07-13T02:27:52;3.90;;;2.83;;
3004;SDS011;1512;51.486;6.610;2023-07-13T02:32:01;5.30;;;2.70;;
3004;SDS011;1512;51.486;6.610;2023-07-13T02:36:10;4.17;;;2.50;;
3004;SDS011;1512;51.486;6.610;2023-07-13T02:40:19;4.77;;;2.67;;
3004;SDS011;1512;51.486;6.610;2023-07-13T02:44:28;6.53;;;3.37;;
3004;SDS011;1512;51.486;6.610;2023-07-13T02:48:37;6.43;;;3.67;;
3004;SDS011;1512;51.486;6.610;2023-07-13T02:52:46;6.97;;;2.30;;
3004;SDS011;1512;51.486;6.610;2023-07-13T02:56:55;4.20;;;2.97;;
3004;SDS011;1512;51.486;6.610;2023-07-13T03:01:07;8.70;;;3.17;;
3004;SDS011;1512;51.486;6.610;2023-07-13T03:05:17;3.23;;;2.60;;
3004;SDS011;1512;51.486;6.610;2023-07-13T03:09:26;4.10;;;3.20;;
3004;SDS011;1512;51.486;6.610;2023-07-13T03:13:35;5.10;;;3.40;;
3004;SDS011;1512;51.486;6.610;2023-07-13T03:17:44;2.77;;;2.50;;
3004;SDS011;1512;51.486;6.610;2023-07-13T03:21:53;3.63;;;2.97;;
3004;SDS011;1512;51.486;6.610;2023-07-13T03:26:09;5.60;;;2.93;;
3004;SDS011;1512;51.486;6.610;2023-07-13T03:30:20;4.67;;;2.83;;
3004;SDS011;1512;51.486;6.610;2023-07-13T03:34:30;3.43;;;2.67;;
3004;SDS011;1512;51.486;6.610;2023-07-13T03:38:39;3.23;;;2.70;;
3004;SDS011;1512;51.486;6.610;2023-07-13T03:42:48;6.30;;;3.07;;
3004;SDS011;1512;51.486;6.610;2023-07-13T03:46:56;4.43;;;2.70;;
3004;SDS011;1512;51.486;6.610;2023-07-13T03:51:05;4.40;;;3.60;;
3004;SDS011;1512;51.486;6.610;2023-07-13T03:55:14;4.07;;;2.93;;
3004;SDS011;1512;51.486;6.610;2023-07-13T04:03:51;4.47;;;3.37;;
3004;SDS011;1512;51.486;6.610;2023-07-13T04:08:00;5.57;;;3.20;;
3004;SDS011;1512;51.486;6.610;2023-07-13T04:12:09;4.97;;;2.77;;
3004;SDS011;1512;51.486;6.610;2023-07-13T04:16:18;4.97;;;3.00;;
3004;SDS011;1512;51.486;6.610;2023-07-13T04:20:27;14.55;;;3.12;;
3004;SDS011;1512;51.486;6.610;2023-07-13T04:24:36;4.23;;;3.37;;
3004;SDS011;1512;51.486;6.610;2023-07-13T04:28:45;4.27;;;3.00;;
3004;SDS011;1512;51.486;6.610;2023-07-13T04:32:53;4.17;;;3.33;;
3004;SDS011;1512;51.486;6.610;2023-07-13T04:37:02;4.40;;;3.10;;
3004;SDS011;1512;51.486;6.610;2023-07-13T04:41:11;5.03;;;3.40;;
3004;SDS011;1512;51.486;6.610;2023-07-13T04:45:22;3.90;;;3.00;;
3004;SDS011;1512;51.486;6.610;2023-07-13T04:49:32;6.13;;;3.40;;
3004;SDS011;1512;51.486;6.610;2023-07-13T04:58:08;4.57;;;3.23;;
3004;SDS011;1512;51.486;6.610;2023-07-13T05:02:17;3.77;;;3.20;;
3004;SDS011;1512;51.486;6.610;2023-07-13T05:06:28;3.97;;;3.30;;
3004;SDS011;1512;51.486;6.610;2023-07-13T05:10:37;8.40;;;3.93;;
3004;SDS011;1512;51.486;6.610;2023-07-13T05:14:46;6.90;;;3.83;;
3004;SDS011;1512;51.486;6.610;2023-07-13T05:18:56;5.13;;;2.60;;
3004;SDS011;1512;51.486;6.610;2023-07-13T05:23:04;6.20;;;3.60;;
3004;SDS011;1512;51.486;6.610;2023-07-13T05:27:13;5.30;;;3.00;;
3004;SDS011;1512;51.486;6.610;2023-07-13T05:31:22;8.00;;;3.90;;
3004;SDS011;1512;51.486;6.610;2023-07-13T05:35:30;8.73;;;4.00;;
3004;SDS011;1512;51.486;6.610;2023-07-13T05:39:39;5.10;;;3.50;;
3004;SDS011;1512;51.486;6.610;2023-07-13T05:43:48;8.70;;;3.40;;
3004;SDS011;1512;51.486;6.610;2023-07-13T05:47:56;8.10;;;3.90;;
3004;SDS011;1512;51.486;6.610;2023-07-13T05:52:05;9.03;;;3.60;;
3004;SDS011;1512;51.486;6.610;2023-07-13T05:56:14;8.07;;;3.90;;
3004;SDS011;1512;51.486;6.610;2023-07-13T06:00:23;4.23;;;3.20;;
3004;SDS011;1512;51.486;6.610;2023-07-13T06:04:32;3.83;;;3.20;;
3004;SDS011;1512;51.486;6.610;2023-07-13T06:08:41;4.90;;;3.80;;
3004;SDS011;1512;51.486;6.610;2023-07-13T06:12:50;7.57;;;4.13;;
3004;SDS011;1512;51.486;6.610;2023-07-13T06:16:58;5.37;;;3.40;;
3004;SDS011;1512;51.486;6.610;2023-07-13T06:21:11;4.50;;;3.40;;
3004;SDS011;1512;51.486;6.610;2023-07-13T06:25:27;7.60;;;4.47;;
3004;SDS011;1512;51.486;6.610;2023-07-13T06:29:36;6.70;;;3.87;;
3004;SDS011;1512;51.486;6.610;2023-07-13T06:33:44;9.50;;;4.10;;
3004;SDS011;1512;51.486;6.610;2023-07-13T06:37:53;7.93;;;4.63;;
3004;SDS011;1512;51.486;6.610;2023-07-13T06:42:02;6.50;;;3.93;;
3004;SDS011;1512;51.486;6.610;2023-07-13T06:46:11;15.90;;;4.83;;
3004;SDS011;1512;51.486;6.610;2023-07-13T06:50:19;8.73;;;3.97;;
3004;SDS011;1512;51.486;6.610;2023-07-13T06:54:28;6.80;;;4.03;;
3004;SDS011;1512;51.486;6.610;2023-07-13T06:58:37;7.20;;;3.90;;
3004;SDS011;1512;51.486;6.610;2023-07-13T07:02:45;7.63;;;4.17;;
3004;SDS011;1512;51.486;6.610;2023-07-13T07:06:54;6.80;;;4.40;;
3004;SDS011;1512;51.486;6.610;2023-07-13T07:11:05;4.93;;;4.43;;
3004;SDS011;1512;51.486;6.610;2023-07-13T07:15:16;8.27;;;4.27;;
3004;SDS011;1512;51.486;6.610;2023-07-13T07:19:26;5.57;;;3.80;;
3004;SDS011;1512;51.486;6.610;2023-07-13T07:23:55;11.27;;;4.87;;
3004;SDS011;1512;51.486;6.610;2023-07-13T07:28:05;9.90;;;5.23;;
3004;SDS011;1512;51.486;6.610;2023-07-13T07:32:16;4.37;;;3.97;;
3004;SDS011;1512;51.486;6.610;2023-07-13T07:36:26;3.90;;;3.57;;
3004;SDS011;1512;51.486;6.610;2023-07-13T07:40:42;8.70;;;4.30;;
3004;SDS011;1512;51.486;6.610;2023-07-13T07:44:49;10.90;;;4.03;;
3004;SDS011;1512;51.486;6.610;2023-07-13T07:49:00;5.70;;;4.20;;
3004;SDS011;1512;51.486;6.610;2023-07-13T07:53:11;7.23;;;4.93;;
3004;SDS011;1512;51.486;6.610;2023-07-13T07:57:19;4.47;;;3.97;;
3004;SDS011;1512;51.486;6.610;2023-07-13T08:01:30;9.50;;;4.33;;
3004;SDS011;1512;51.486;6.610;2023-07-13T08:05:40;7.77;;;3.93;;
3004;SDS011;1512;51.486;6.610;2023-07-13T08:09:53;6.23;;;4.07;;
3004;SDS011;1512;51.486;6.610;2023-07-13T08:14:02;8.87;;;5.17;;
3004;SDS011;1512;51.486;6.610;2023-07-13T08:18:10;9.00;;;4.37;;
3004;SDS011;1512;51.486;6.610;2023-07-13T08:22:19;10.00;;;4.40;;
3004;SDS011;1512;51.486;6.610;2023-07-13T08:26:28;5.30;;;4.13;;
3004;SDS011;1512;51.486;6.610;2023-07-13T08:30:37;6.57;;;4.10;;
3004;SDS011;1512;51.486;6.610;2023-07-13T08:34:46;10.83;;;3.97;;
3004;SDS011;1512;51.486;6.610;2023-07-13T08:38:55;9.43;;;4.17;;
3004;SDS011;1512;51.486;6.610;2023-07-13T08:52:08;6.17;;;4.40;;
3004;SDS011;1512;51.486;6.610;2023-07-13T08:56:19;6.77;;;4.20;;
3004;SDS011;1512;51.486;6.610;2023-07-13T09:00:38;10.48;;;4.60;;
3004;SDS011;1512;51.486;6.610;2023-07-13T09:04:53;4.70;;;3.90;;
3004;SDS011;1512;51.486;6.610;2023-07-13T09:18:16;5.07;;;3.80;;
3004;SDS011;1512;51.486;6.610;2023-07-13T09:22:25;11.63;;;4.83;;
3004;SDS011;1512;51.486;6.610;2023-07-13T09:26:36;8.93;;;4.10;;
3004;SDS011;1512;51.486;6.610;2023-07-13T09:35:21;5.40;;;4.07;;
3004;SDS011;1512;51.486;6.610;2023-07-13T09:39:33;6.40;;;4.37;;
3004;SDS011;1512;51.486;6.610;2023-07-13T09:48:12;6.90;;;4.20;;
3004;SDS011;1512;51.486;6.610;2023-07-13T09:52:22;10.20;;;4.83;;
3004;SDS011;1512;51.486;6.610;2023-07-13T09:56:32;7.53;;;3.90;;
3004;SDS011;1512;51.486;6.610;2023-07-13T10:09:51;5.73;;;3.90;;
3004;SDS011;1512;51.486;6.610;2023-07-13T10:14:21;5.30;;;4.03;;
3004;SDS011;1512;51.486;6.610;2023-07-13T10:18:44;5.37;;;3.70;;
3004;SDS011;1512;51.486;6.610;2023-07-13T10:23:00;8.00;;;4.07;;
3004;SDS011;1512;51.486;6.610;2023-07-13T10:31:44;4.53;;;3.50;;
3004;SDS011;1512;51.486;6.610;2023-07-13T10:36:00;5.03;;;3.60;;
3004;SDS011;1512;51.486;6.610;2023-07-13T10:40:05;4.13;;;3.67;;
3004;SDS011;1512;51.486;6.610;2023-07-13T10:44:24;6.10;;;3.90;;
3004;SDS011;1512;51.486;6.610;2023-07-13T10:48:35;5.10;;;3.50;;
3004;SDS011;1512;51.486;6.610;2023-07-13T10:52:50;6.07;;;3.40;;
3004;SDS011;1512;51.486;6.610;2023-07-13T10:57:17;4.07;;;3.67;;
3004;SDS011;1512;51.486;6.610;2023-07-13T11:01:38;7.13;;;3.40;;
3004;SDS011;1512;51.486;6.610;2023-07-13T11:05:40;5.43;;;3.47;;
3004;SDS011;1512;51.486;6.610;2023-07-13T11:09:53;7.33;;;4.70;;
3004;SDS011;1512;51.486;6.610;2023-07-13T11:14:05;6.50;;;3.53;;
3004;SDS011;1512;51.486;6.610;2023-07-13T11:18:32;5.27;;;3.40;;
3004;SDS011;1512;51.486;6.610;2023-07-13T11:31:54;4.17;;;2.93;;
3004;SDS011;1512;51.486;6.610;2023-07-13T11:36:05;3.43;;;3.13;;
3004;SDS011;1512;51.486;6.610;2023-07-13T11:40:16;4.33;;;3.40;;
3004;SDS011;1512;51.486;6.610;2023-07-13T11:44:27;7.90;;;3.63;;
3004;SDS011;1512;51.486;6.610;2023-07-13T11:48:37;5.77;;;3.33;;
3004;SDS011;1512;51.486;6.610;2023-07-13T11:52:49;5.63;;;3.20;;
3004;SDS011;1512;51.486;6.610;2023-07-13T11:57:02;6.50;;;2.77;;
3004;SDS011;1512;51.486;6.610;2023-07-13T12:01:21;3.87;;;2.87;;
3004;SDS011;1512;51.486;6.610;2023-07-13T12:05:30;5.87;;;2.90;;
3004;SDS011;1512;51.486;6.610;2023-07-13T12:09:39;5.00;;;3.43;;
3004;SDS011;1512;51.486;6.610;2023-07-13T12:13:48;5.50;;;3.30;;
3004;SDS011;1512;51.486;6.610;2023-07-13T12:17:58;3.60;;;2.90;;
3004;SDS011;1512;51.486;6.610;2023-07-13T12:22:08;3.83;;;2.67;;
3004;SDS011;1512;51.486;6.610;2023-07-13T12:26:19;3.33;;;2.80;;
3004;SDS011;1512;51.486;6.610;2023-07-13T12:30:29;5.23;;;3.20;;
3004;SDS011;1512;51.486;6.610;2023-07-13T12:34:54;4.20;;;3.07;;
3004;SDS011;1512;51.486;6.610;2023-07-13T12:39:11;5.50;;;3.37;;
3004;SDS011;1512;51.486;6.610;2023-07-13T12:43:16;13.87;;;3.50;;
3004;SDS011;1512;51.486;6.610;2023-07-13T12:47:27;3.23;;;2.83;;
3004;SDS011;1512;51.486;6.610;2023-07-13T12:51:37;5.70;;;3.60;;
3004;SDS011;1512;51.486;6.610;2023-07-13T12:55:47;3.40;;;3.07;;
3004;SDS011;1512;51.486;6.610;2023-07-13T12:59:58;5.03;;;3.10;;
3004;SDS011;1512;51.486;6.610;2023-07-13T13:04:08;5.30;;;4.30;;
3004;SDS011;1512;51.486;6.610;2023-07-13T13:08:20;4.70;;;3.67;;
3004;SDS011;1512;51.486;6.610;2023-07-13T13:12:29;3.50;;;2.90;;
3004;SDS011;1512;51.486;6.610;2023-07-13T13:16:49;4.00;;;2.87;;
3004;SDS011;1512;51.486;6.610;2023-07-13T13:20:55;3.80;;;3.50;;
3004;SDS011;1512;51.486;6.610;2023-07-13T13:29:32;4.20;;;3.70;;
3004;SDS011;1512;51.486;6.610;2023-07-13T13:33:44;6.10;;;3.10;;
3004;SDS011;1512;51.486;6.610;2023-07-13T13:37:55;4.20;;;3.33;;
3004;SDS011;1512;51.486;6.610;2023-07-13T13:42:03;8.33;;;3.30;;
3004;SDS011;1512;51.486;6.610;2023-07-13T13:46:16;4.53;;;4.03;;
3004;SDS011;1512;51.486;6.610;2023-07-13T13:50:27;6.13;;;4.43;;
3004;SDS011;1512;51.486;6.610;2023-07-13T13:54:36;5.83;;;4.23;;
3004;SDS011;1512;51.486;6.610;2023-07-13T13:58:47;4.10;;;3.70;;
3004;SDS011;1512;51.486;6.610;2023-07-13T14:02:55;4.10;;;3.70;;
3004;SDS011;1512;51.486;6.610;2023-07-13T14:07:04;6.80;;;4.20;;
3004;SDS011;1512;51.486;6.610;2023-07-13T14:11:14;4.30;;;3.90;;
3004;SDS011;1512;51.486;6.610;2023-07-13T14:15:26;4.23;;;3.80;;
3004;SDS011;1512;51.486;6.610;2023-07-13T14:19:37;5.10;;;3.77;;
3004;SDS011;1512;51.486;6.610;2023-07-13T14:23:47;4.00;;;3.43;;
3004;SDS011;1512;51.486;6.610;2023-07-13T14:27:58;3.80;;;3.50;;
3004;SDS011;1512;51.486;6.610;2023-07-13T14:32:10;6.37;;;3.50;;
3004;SDS011;1512;51.486;6.610;2023-07-13T14:40:37;4.03;;;3.00;;
3004;SDS011;1512;51.486;6.610;2023-07-13T14:44:47;3.87;;;3.50;;
3004;SDS011;1512;51.486;6.610;2023-07-13T14:49:03;6.93;;;3.70;;
3004;SDS011;1512;51.486;6.610;2023-07-13T14:57:42;5.13;;;3.00;;
3004;SDS011;1512;51.486;6.610;2023-07-13T15:01:51;6.00;;;4.27;;
3004;SDS011;1512;51.486;6.610;2023-07-13T15:06:01;5.57;;;3.47;;
3004;SDS011;1512;51.486;6.610;2023-07-13T15:10:21;6.10;;;3.70;;
3004;SDS011;1512;51.486;6.610;2023-07-13T15:14:33;5.67;;;4.00;;
3004;SDS011;1512;51.486;6.610;2023-07-13T15:18:42;4.30;;;3.50;;
3004;SDS011;1512;51.486;6.610;2023-07-13T15:22:51;3.90;;;3.27;;
3004;SDS011;1512;51.486;6.610;2023-07-13T15:27:00;3.97;;;3.67;;
3004;SDS011;1512;51.486;6.610;2023-07-13T15:31:16;6.43;;;4.20;;
3004;SDS011;1512;51.486;6.610;2023-07-13T15:35:33;4.62;;;3.60;;
3004;SDS011;1512;51.486;6.610;2023-07-13T15:39:42;3.45;;;3.15;;
3004;SDS011;1512;51.486;6.610;2023-07-13T15:43:51;3.53;;;3.20;;
3004;SDS011;1512;51.486;6.610;2023-07-13T15:48:02;4.07;;;3.00;;
3004;SDS011;1512;51.486;6.610;2023-07-13T15:52:22;4.20;;;3.20;;
3004;SDS011;1512;51.486;6.610;2023-07-13T15:56:47;4.10;;;3.40;;
3004;SDS011;1512;51.486;6.610;2023-07-13T16:00:58;5.07;;;3.27;;
3004;SDS011;1512;51.486;6.610;2023-07-13T16:05:06;5.07;;;3.33;;
3004;SDS011;1512;51.486;6.610;2023-07-13T16:09:19;4.83;;;4.43;;
3004;SDS011;1512;51.486;6.610;2023-07-13T16:13:33;5.77;;;3.90;;
3004;SDS011;1512;51.486;6.610;2023-07-13T16:17:42;3.53;;;3.10;;
3004;SDS011;1512;51.486;6.610;2023-07-13T16:21:53;5.60;;;4.13;;
3004;SDS011;1512;51.486;6.610;2023-07-13T16:26:02;4.53;;;3.90;;
3004;SDS011;1512;51.486;6.610;2023-07-13T16:30:14;5.90;;;3.30;;
3004;SDS011;1512;51.486;6.610;2023-07-13T16:34:33;3.93;;;3.53;;
3004;SDS011;1512;51.486;6.610;2023-07-13T16:38:43;5.10;;;3.60;;
3004;SDS011;1512;51.486;6.610;2023-07-13T16:42:53;4.13;;;3.37;;
3004;SDS011;1512;51.486;6.610;2023-07-13T16:47:05;3.50;;;3.20;;
3004;SDS011;1512;51.486;6.610;2023-07-13T16:51:15;4.03;;;3.37;;
3004;SDS011;1512;51.486;6.610;2023-07-13T16:55:24;5.10;;;3.03;;
3004;SDS011;1512;51.486;6.610;2023-07-13T16:59:35;3.13;;;2.90;;
3004;SDS011;1512;51.486;6.610;2023-07-13T17:03:43;3.30;;;3.00;;
3004;SDS011;1512;51.486;6.610;2023-07-13T17:07:52;5.70;;;3.47;;
3004;SDS011;1512;51.486;6.610;2023-07-13T17:12:01;2.87;;;2.57;;
3004;SDS011;1512;51.486;6.610;2023-07-13T17:16:10;3.47;;;3.17;;
3004;SDS011;1512;51.486;6.610;2023-07-13T17:20:22;3.87;;;2.87;;
3004;SDS011;1512;51.486;6.610;2023-07-13T17:24:33;3.70;;;3.23;;
3004;SDS011;1512;51.486;6.610;2023-07-13T17:28:43;3.07;;;2.70;;
3004;SDS011;1512;51.486;6.610;2023-07-13T17:32:52;2.90;;;2.60;;
3004;SDS011;1512;51.486;6.610;2023-07-13T17:37:00;3.70;;;3.03;;
3004;SDS011;1512;51.486;6.610;2023-07-13T17:41:10;4.60;;;3.17;;
3004;SDS011;1512;51.486;6.610;2023-07-13T17:45:24;3.00;;;2.73;;
3004;SDS011;1512;51.486;6.610;2023-07-13T17:49:34;3.10;;;2.70;;
3004;SDS011;1512;51.486;6.610;2023-07-13T17:53:43;6.37;;;2.93;;
3004;SDS011;1512;51.486;6.610;2023-07-13T17:57:52;3.20;;;2.90;;
3004;SDS011;1512;51.486;6.610;2023-07-13T18:02:01;5.90;;;2.57;;
3004;SDS011;1512;51.486;6.610;2023-07-13T18:06:15;3.03;;;2.73;;
3004;SDS011;1512;51.486;6.610;2023-07-13T18:10:25;5.50;;;2.90;;
3004;SDS011;1512;51.486;6.610;2023-07-13T18:14:34;3.80;;;2.90;;
3004;SDS011;1512;51.486;6.610;2023-07-13T18:18:43;4.80;;;3.30;;
3004;SDS011;1512;51.486;6.610;2023-07-13T18:22:51;3.37;;;3.07;;
3004;SDS011;1512;51.486;6.610;2023-07-13T18:27:01;6.43;;;2.97;;
3004;SDS011;1512;51.486;6.610;2023-07-13T18:31:12;4.70;;;2.90;;
3004;SDS011;1512;51.486;6.610;2023-07-13T18:35:30;3.70;;;2.90;;
3004;SDS011;1512;51.486;6.610;2023-07-13T18:39:40;3.77;;;3.43;;
3004;SDS011;1512;51.486;6.610;2023-07-13T18:43:49;4.53;;;3.47;;
3004;SDS011;1512;51.486;6.610;2023-07-13T18:47:59;4.13;;;3.30;;
3004;SDS011;1512;51.486;6.610;2023-07-13T18:52:15;4.70;;;3.17;;
3004;SDS011;1512;51.486;6.610;2023-07-13T18:56:24;5.00;;;3.40;;
3004;SDS011;1512;51.486;6.610;2023-07-13T19:00:33;7.23;;;3.90;;
3004;SDS011;1512;51.486;6.610;2023-07-13T19:04:42;4.53;;;3.30;;
3004;SDS011;1512;51.486;6.610;2023-07-13T19:08:50;6.47;;;3.57;;
3004;SDS011;1512;51.486;6.610;2023-07-13T19:12:59;5.07;;;3.30;;
3004;SDS011;1512;51.486;6.610;2023-07-13T19:17:10;4.10;;;3.70;;
3004;SDS011;1512;51.486;6.610;2023-07-13T19:21:33;3.50;;;3.20;;
3004;SDS011;1512;51.486;6.610;2023-07-13T19:25:46;5.00;;;3.43;;
3004;SDS011;1512;51.486;6.610;2023-07-13T19:29:56;4.20;;;3.60;;
3004;SDS011;1512;51.486;6.610;2023-07-13T19:34:13;4.50;;;3.90;;
3004;SDS011;1512;51.486;6.610;2023-07-13T19:38:22;3.20;;;2.90;;
3004;SDS011;1512;51.486;6.610;2023-07-13T19:42:29;3.10;;;2.90;;
3004;SDS011;1512;51.486;6.610;2023-07-13T19:46:38;4.23;;;3.83;;
3004;SDS011;1512;51.486;6.610;2023-07-13T19:50:47;4.67;;;3.80;;
3004;SDS011;1512;51.486;6.610;2023-07-13T19:54:57;6.03;;;3.87;;
3004;SDS011;1512;51.486;6.610;2023-07-13T19:59:18;5.03;;;3.50;;
3004;SDS011;1512;51.486;6.610;2023-07-13T20:03:36;4.50;;;2.90;;
3004;SDS011;1512;51.486;6.610;2023-07-13T20:07:45;5.50;;;3.83;;
3004;SDS011;1512;51.486;6.610;2023-07-13T20:11:56;4.50;;;3.10;;
3004;SDS011;1512;51.486;6.610;2023-07-13T20:16:07;3.70;;;3.40;;
3004;SDS011;1512;51.486;6.610;2023-07-13T20:20:19;6.60;;;4.07;;
3004;SDS011;1512;51.486;6.610;2023-07-13T20:24:30;6.13;;;3.90;;
3004;SDS011;1512;51.486;6.610;2023-07-13T20:28:39;3.98;;;3.58;;
3004;SDS011;1512;51.486;6.610;2023-07-13T20:32:48;3.83;;;3.43;;
3004;SDS011;1512;51.486;6.610;2023-07-13T20:36:59;6.60;;;3.60;;
3004;SDS011;1512;51.486;6.610;2023-07-13T20:41:14;4.70;;;3.50;;
3004;SDS011;1512;51.486;6.610;2023-07-13T20:45:20;9.30;;;4.50;;
3004;SDS011;1512;51.486;6.610;2023-07-13T20:49:30;6.57;;;4.10;;
3004;SDS011;1512;51.486;6.610;2023-07-13T20:53:39;4.27;;;3.67;;
3004;SDS011;1512;51.486;6.610;2023-07-13T20:57:48;4.50;;;3.30;;
3004;SDS011;1512;51.486;6.610;2023-07-13T21:01:57;4.20;;;3.67;;
3004;SDS011;1512;51.486;6.610;2023-07-13T21:06:10;4.70;;;4.00;;
3004;SDS011;1512;51.486;6.610;2023-07-13T21:10:24;4.17;;;3.77;;
3004;SDS011;1512;51.486;6.610;2023-07-13T21:14:34;5.60;;;4.27;;
3004;SDS011;1512;51.486;6.610;2023-07-13T21:18:43;4.73;;;4.00;;
3004;SDS011;1512;51.486;6.610;2023-07-13T21:22:52;10.18;;;4.37;;
3004;SDS011;1512;51.486;6.610;2023-07-13T21:27:01;5.90;;;4.50;;
3004;SDS011;1512;51.486;6.610;2023-07-13T21:31:23;8.37;;;4.10;;
3004;SDS011;1512;51.486;6.610;2023-07-13T21:35:35;5.80;;;4.53;;
3004;SDS011;1512;51.486;6.610;2023-07-13T21:39:48;5.50;;;4.00;;
3004;SDS011;1512;51.486;6.610;2023-07-13T21:43:58;4.20;;;3.57;;
3004;SDS011;1512;51.486;6.610;2023-07-13T21:48:07;4.53;;;3.73;;
3004;SDS011;1512;51.486;6.610;2023-07-13T21:52:17;4.67;;;4.17;;
3004;SDS011;1512;51.486;6.610;2023-07-13T21:56:26;5.90;;;4.47;;
3004;SDS011;1512;51.486;6.610;2023-07-13T22:00:35;4.57;;;3.40;;
3004;SDS011;1512;51.486;6.610;2023-07-13T22:04:44;5.90;;;4.10;;
3004;SDS011;1512;51.486;6.610;2023-07-13T22:08:53;5.80;;;5.00;;
3004;SDS011;1512;51.486;6.610;2023-07-13T22:13:04;5.80;;;4.00;;
3004;SDS011;1512;51.486;6.610;2023-07-13T22:17:13;8.17;;;3.93;;
3004;SDS011;1512;51.486;6.610;2023-07-13T22:21:23;5.67;;;4.40;;
3004;SDS011;1512;51.486;6.610;2023-07-13T22:25:32;4.47;;;4.07;;
3004;SDS011;1512;51.486;6.610;2023-07-13T22:29:41;4.90;;;4.40;;
3004;SDS011;1512;51.486;6.610;2023-07-13T22:33:50;4.50;;;3.60;;
3004;SDS011;1512;51.486;6.610;2023-07-13T22:37:59;5.23;;;4.23;;
3004;SDS011;1512;51.486;6.610;2023-07-13T22:42:08;6.37;;;4.50;;
3004;SDS011;1512;51.486;6.610;2023-07-13T22:46:24;4.17;;;3.80;;
3004;SDS011;1512;51.486;6.610;2023-07-13T22:50:35;5.80;;;4.90;;
3004;SDS011;1512;51.486;6.610;2023-07-13T22:54:45;4.77;;;3.90;;
3004;SDS011;1512;51.486;6.610;2023-07-13T22:58:54;4.60;;;4.10;;
3004;SDS011;1512;51.486;6.610;2023-07-13T23:03:04;6.80;;;4.47;;
3004;SDS011;1512;51.486;6.610;2023-07-13T23:07:17;4.90;;;4.20;;
3004;SDS011;1512;51.486;6.610;2023-07-13T23:11:27;6.10;;;4.70;;
3004;SDS011;1512;51.486;6.610;2023-07-13T23:15:36;9.37;;;4.47;;
3004;SDS011;1512;51.486;6.610;2023-07-13T23:19:45;7.60;;;4.03;;
3004;SDS011;1512;51.486;6.610;2023-07-13T23:23:54;5.30;;;4.20;;
3004;SDS011;1512;51.486;6.610;2023-07-13T23:28:02;4.77;;;4.00;;
3004;SDS011;1512;51.486;6.610;2023-07-13T23:32:11;4.43;;;3.87;;
3004;SDS011;1512;51.486;6.610;2023-07-13T23:36:20;4.70;;;4.30;;
3004;SDS011;1512;51.486;6.610;2023-07-13T23:40:29;5.93;;;4.47;;
3004;SDS011;1512;51.486;6.610;2023-07-13T23:44:38;7.57;;;4.30;;
3004;SDS011;1512;51.486;6.610;2023-07-13T23:48:47;4.73;;;4.33;;
3004;SDS011;1512;51.486;6.610;2023-07-13T23:52:56;6.07;;;4.47;;
3004;SDS011;1512;51.486;6.610;2023-07-13T23:57:08;8.00;;;5.50;;
